Time;durP1;ratioP1;P1;durP2;ratioP2;P2;SDS_P1;SDS_P2;PMS_P1;PMS_P2;Temp;Humidity;BMP_temperature;BMP_pressure;BME280_temperature;BME280_humidity;BME280_pressure;Samples;Min_cycle;Max_cycle;Signal;HPM_P1;HPM_P2
2022/05/16 00:02:15;;;;;;;2.50;1.47;;;;;;;12.63;75.21;100627.75;5074050;28;20676;-72
2022/05/16 00:04:44;;;;;;;4.63;1.50;;;;;;;12.64;75.90;100623.88;5072796;28;20186;-73
2022/05/16 00:07:11;;;;;;;3.20;1.40;;;;;;;12.47;75.39;100624.66;5073962;28;20258;-73
2022/05/16 00:09:37;;;;;;;3.37;1.60;;;;;;;12.24;76.76;100618.47;5073633;28;20179;-72
2022/05/16 00:12:04;;;;;;;3.10;1.70;;;;;;;12.28;76.17;100624.91;5073798;28;20175;-73
2022/05/16 00:14:29;;;;;;;1.83;1.50;;;;;;;12.17;76.56;100624.41;5072736;28;20178;-72
2022/05/16 00:16:55;;;;;;;3.07;1.40;;;;;;;11.96;77.76;100625.28;5071645;28;20277;-73
2022/05/16 00:19:20;;;;;;;3.27;1.63;;;;;;;11.86;78.72;100618.16;5072950;28;20205;-72
2022/05/16 00:21:46;;;;;;;2.60;1.70;;;;;;;11.86;79.31;100624.47;5073172;28;20220;-72
2022/05/16 00:24:11;;;;;;;3.40;1.90;;;;;;;11.64;80.04;100613.53;5073293;28;20643;-73
2022/05/16 00:26:36;;;;;;;2.87;1.80;;;;;;;11.56;81.36;100606.88;5073186;28;20186;-72
2022/05/16 00:29:02;;;;;;;3.03;1.80;;;;;;;11.78;80.98;100610.69;5073144;28;20183;-73
2022/05/16 00:31:27;;;;;;;2.87;2.13;;;;;;;11.97;80.57;100599.53;5073133;28;20174;-72
2022/05/16 00:33:53;;;;;;;4.27;1.93;;;;;;;12.00;80.57;100596.94;5073092;28;20174;-72
2022/05/16 00:36:18;;;;;;;3.27;1.83;;;;;;;11.84;80.32;100599.31;5072912;28;20178;-73
2022/05/16 00:38:43;;;;;;;3.90;2.03;;;;;;;11.48;81.84;100580.28;5072840;28;20534;-72
2022/05/16 00:41:09;;;;;;;2.80;1.97;;;;;;;11.48;83.06;100584.94;5072918;28;20228;-72
2022/05/16 00:44:04;;;;;;;3.87;2.00;;;;;;;11.43;83.19;100583.16;5072802;28;20679;-73
2022/05/16 00:46:31;;;;;;;2.90;2.17;;;;;;;11.29;84.34;100585.97;5063788;28;20277;-72
2022/05/16 00:48:57;;;;;;;3.00;2.10;;;;;;;11.24;84.95;100585.28;5072476;28;20180;-72
2022/05/16 00:51:27;;;;;;;3.70;2.50;;;;;;;11.40;84.87;100588.44;5072611;28;20179;-72
2022/05/16 00:54:01;;;;;;;4.70;2.53;;;;;;;11.49;84.14;100590.09;5072593;28;20219;-73
2022/05/16 00:56:28;;;;;;;9.70;2.27;;;;;;;11.44;84.43;100587.50;5072623;28;20197;-73
2022/05/16 00:58:55;;;;;;;8.03;2.13;;;;;;;11.46;83.92;100579.78;5072346;28;20217;-73
2022/05/16 01:06:50;;;;;;;4.60;2.53;;;;;;;11.53;83.61;100574.66;5069483;28;20188;-73
2022/05/16 01:09:16;;;;;;;3.23;1.90;;;;;;;11.62;83.54;100575.53;5072017;28;20194;-73
2022/05/16 01:11:41;;;;;;;3.60;2.10;;;;;;;11.59;83.40;100565.22;5072543;28;20207;-73
2022/05/16 01:14:07;;;;;;;3.60;2.27;;;;;;;11.63;83.63;100570.88;5072267;28;20242;-73
2022/05/16 01:16:32;;;;;;;2.93;2.07;;;;;;;11.52;83.97;100572.25;5071999;28;20183;-73
2022/05/16 01:18:58;;;;;;;3.60;1.90;;;;;;;11.51;83.53;100568.72;5072021;28;20201;-73
2022/05/16 01:21:35;;;;;;;5.90;2.27;;;;;;;11.58;84.08;100566.34;5072402;28;20205;-72
2022/05/16 01:24:08;;;;;;;3.03;2.27;;;;;;;11.58;83.76;100554.59;5072083;28;20585;-74
2022/05/16 01:26:34;;;;;;;3.67;2.20;;;;;;;11.59;84.03;100561.69;5072045;28;20254;-72
2022/05/16 01:29:00;;;;;;;4.10;2.00;;;;;;;11.47;84.52;100556.78;5071878;28;20178;-73
2022/05/16 01:31:26;;;;;;;6.67;2.40;;;;;;;11.36;84.33;100551.91;5071898;28;20167;-71
2022/05/16 01:33:51;;;;;;;3.67;2.37;;;;;;;11.05;85.65;100555.41;5071826;28;20644;-73
2022/05/16 01:36:17;;;;;;;2.80;1.90;;;;;;;11.17;86.03;100557.59;5071690;28;20183;-73
2022/05/16 01:38:42;;;;;;;4.33;2.30;;;;;;;11.20;86.01;100549.56;5071888;28;20178;-72
2022/05/16 01:41:27;;;;;;;5.40;2.00;;;;;;;11.41;85.20;100555.28;5071414;28;20213;-73
2022/05/16 01:43:55;;;;;;;5.37;2.10;;;;;;;11.51;84.02;100555.03;5071617;28;20197;-72
2022/05/16 01:46:27;;;;;;;4.07;2.43;;;;;;;11.49;83.93;100565.47;5071598;28;20197;-72
2022/05/16 01:48:53;;;;;;;3.67;2.57;;;;;;;11.50;84.67;100569.03;5071634;28;20266;-72
2022/05/16 01:51:19;;;;;;;2.77;1.87;;;;;;;11.42;85.30;100559.63;5071481;28;20259;-73
2022/05/16 01:53:45;;;;;;;2.27;2.07;;;;;;;11.13;85.83;100567.50;5071487;28;20171;-73
2022/05/16 01:56:11;;;;;;;6.23;2.23;;;;;;;10.83;87.89;100556.22;5071511;28;20438;-73
2022/05/16 01:58:36;;;;;;;2.63;2.00;;;;;;;10.73;88.80;100556.47;5071434;28;20175;-72
2022/05/16 02:01:02;;;;;;;4.70;2.23;;;;;;;10.72;89.71;100555.66;5070680;28;20218;-72
2022/05/16 02:03:28;;;;;;;5.63;2.40;;;;;;;10.62;89.57;100542.22;5071387;28;20179;-74
2022/05/16 02:05:54;;;;;;;3.10;2.10;;;;;;;10.95;89.06;100552.91;5071338;28;20206;-72
2022/05/16 02:08:19;;;;;;;3.43;2.40;;;;;;;11.06;88.03;100542.53;5071090;28;20186;-74
2022/05/16 02:10:45;;;;;;;3.90;1.63;;;;;;;10.89;87.98;100540.50;5071235;28;20183;-73
2022/05/16 02:13:11;;;;;;;2.37;1.80;;;;;;;10.86;88.57;100535.69;5071119;28;20212;-73
2022/05/16 02:15:39;;;;;;;4.33;2.00;;;;;;;10.78;88.94;100533.66;5071096;28;20182;-73
2022/05/16 02:18:05;;;;;;;3.40;2.20;;;;;;;10.72;89.06;100527.53;5070959;28;20185;-72
2022/05/16 02:20:31;;;;;;;3.47;1.50;;;;;;;10.77;88.57;100523.88;5071013;28;20229;-74
2022/05/16 02:25:44;;;;;;;6.17;2.00;;;;;;;10.92;87.03;100523.47;5071295;28;20537;-74
2022/05/16 02:28:14;;;;;;;3.03;1.90;;;;;;;10.91;86.69;100513.66;5070803;28;20213;-74
2022/05/16 02:30:41;;;;;;;3.77;2.07;;;;;;;10.88;86.26;100517.03;5071000;28;20202;-74
2022/05/16 02:33:07;;;;;;;4.30;2.10;;;;;;;10.92;85.36;100520.75;5070921;28;20182;-73
2022/05/16 02:35:32;;;;;;;4.80;1.83;;;;;;;10.90;84.32;100525.72;5071206;28;20183;-73
2022/05/16 02:37:58;;;;;;;5.17;2.03;;;;;;;10.91;83.85;100522.69;5070732;28;20686;-72
2022/05/16 02:40:29;;;;;;;2.40;1.70;;;;;;;10.87;83.14;100520.88;5070487;28;20198;-73
2022/05/16 02:42:55;;;;;;;3.60;2.10;;;;;;;10.86;82.92;100519.28;5050629;28;20219;-73
2022/05/16 02:45:21;;;;;;;5.80;2.30;;;;;;;10.83;83.24;100522.59;5050748;28;20209;-72
2022/05/16 02:47:46;;;;;;;3.83;1.77;;;;;;;10.85;83.00;100523.09;5050530;28;20605;-74
2022/05/16 02:50:12;;;;;;;3.00;1.87;;;;;;;10.76;83.15;100516.78;5050735;28;20178;-73
2022/05/16 02:52:38;;;;;;;2.73;1.70;;;;;;;10.71;83.28;100513.06;5050676;28;20187;-72
2022/05/16 02:55:04;;;;;;;3.60;1.77;;;;;;;10.75;82.88;100505.03;5050778;28;20171;-73
2022/05/16 02:57:29;;;;;;;2.10;1.83;;;;;;;10.75;82.81;100509.69;5050350;28;20180;-73
2022/05/16 02:59:55;;;;;;;2.80;1.63;;;;;;;10.81;82.88;100509.25;5050851;28;20207;-73
2022/05/16 03:02:21;;;;;;;1.77;1.50;;;;;;;10.80;82.21;100515.84;5050661;28;20267;-74
2022/05/16 03:04:47;;;;;;;3.07;1.67;;;;;;;10.55;82.72;100509.06;5050580;28;20250;-73
2022/05/16 03:07:12;;;;;;;3.93;1.97;;;;;;;10.59;83.66;100509.28;5050239;28;20262;-73
2022/05/16 03:09:38;;;;;;;3.40;2.03;;;;;;;10.66;82.94;100502.25;5066759;28;20194;-73
2022/05/16 03:12:03;;;;;;;6.20;1.73;;;;;;;10.56;83.41;100499.78;5071568;28;20202;-73
2022/05/16 03:14:29;;;;;;;2.47;1.60;;;;;;;10.49;84.23;100495.84;5073262;28;20179;-74
2022/05/16 03:16:55;;;;;;;1.87;1.67;;;;;;;10.43;84.75;100504.16;5074365;28;20182;-73
2022/05/16 03:19:20;;;;;;;3.30;1.80;;;;;;;10.40;85.02;100493.03;5074320;28;20190;-74
2022/05/16 03:21:46;;;;;;;3.93;2.27;;;;;;;10.61;84.23;100496.09;5074497;28;20695;-72
2022/05/16 03:24:11;;;;;;;5.37;1.97;;;;;;;10.60;83.75;100497.22;5074319;28;20621;-73
2022/05/16 03:26:38;;;;;;;1.87;1.70;;;;;;;10.49;84.14;100504.84;5074232;28;20174;-73
2022/05/16 03:29:06;;;;;;;4.20;2.10;;;;;;;10.44;84.27;100499.50;5074684;28;20265;-72
2022/05/16 03:31:32;;;;;;;2.47;2.00;;;;;;;10.35;84.97;100498.63;5072864;28;20582;-74
2022/05/16 03:33:57;;;;;;;4.17;2.20;;;;;;;10.33;85.28;100498.94;5074513;28;20261;-73
2022/05/16 03:36:23;;;;;;;2.17;1.83;;;;;;;10.28;85.69;100490.06;5074417;28;20174;-71
2022/05/16 03:41:32;;;;;;;5.97;2.27;;;;;;;10.16;85.87;100489.75;5073837;28;20636;-73
2022/05/16 03:43:57;;;;;;;2.17;1.97;;;;;;;9.99;87.21;100485.75;5073877;28;20182;-73
2022/05/16 03:46:24;;;;;;;3.80;2.20;;;;;;;9.85;88.29;100482.25;5073990;28;20179;-74
2022/05/16 03:48:49;;;;;;;2.10;1.57;;;;;;;9.95;88.52;100484.72;5073826;28;20167;-73
2022/05/16 03:51:14;;;;;;;4.50;2.20;;;;;;;10.16;87.72;100478.84;5074059;28;20174;-73
2022/05/16 03:53:46;;;;;;;1.83;1.73;;;;;;;9.92;87.95;100470.88;5073901;28;20166;-73
2022/05/16 03:56:24;;;;;;;2.90;2.07;;;;;;;10.06;88.51;100468.94;5073861;28;20261;-73
2022/05/16 03:58:49;;;;;;;2.20;2.00;;;;;;;10.10;88.16;100470.75;5073653;28;20208;-73
2022/05/16 04:01:15;;;;;;;2.40;1.80;;;;;;;10.18;87.79;100471.94;5073663;28;20285;-73
2022/05/16 04:03:41;;;;;;;2.83;1.90;;;;;;;10.22;87.71;100461.25;5073898;28;20488;-73
2022/05/16 04:06:07;;;;;;;3.13;2.20;;;;;;;10.28;87.61;100463.56;5073644;28;20178;-73
2022/05/16 04:08:33;;;;;;;3.30;2.03;;;;;;;10.32;86.95;100461.00;5073467;28;20178;-73
2022/05/16 04:10:59;;;;;;;2.37;2.17;;;;;;;10.13;87.01;100461.16;5073495;28;20179;-72
2022/05/16 04:13:26;;;;;;;4.17;2.07;;;;;;;9.95;87.79;100451.97;5073606;28;20171;-73
2022/05/16 04:15:51;;;;;;;5.43;2.50;;;;;;;9.93;88.11;100456.94;5073397;28;20659;-72
2022/05/16 04:18:17;;;;;;;5.43;2.47;;;;;;;9.95;88.34;100451.97;5073247;28;20204;-73
2022/05/16 04:20:42;;;;;;;7.17;2.40;;;;;;;10.01;88.22;100449.97;5073272;28;20544;-72
2022/05/16 04:23:09;;;;;;;2.83;2.10;;;;;;;9.97;88.68;100455.19;5072126;28;20613;-73
2022/05/16 04:25:34;;;;;;;2.47;2.17;;;;;;;10.22;88.61;100455.78;5072963;28;20212;-73
2022/05/16 04:28:00;;;;;;;3.57;2.60;;;;;;;10.35;88.30;100465.84;5073077;28;20174;-73
2022/05/16 04:30:26;;;;;;;6.47;2.40;;;;;;;10.48;87.58;100465.00;5073144;28;20232;-73
2022/05/16 04:32:51;;;;;;;3.37;2.40;;;;;;;10.49;87.20;100466.59;5073246;28;20178;-74
2022/05/16 04:35:17;;;;;;;2.50;2.30;;;;;;;10.61;86.76;100463.31;5073139;28;20166;-74
2022/05/16 04:37:42;;;;;;;3.80;2.40;;;;;;;10.67;86.15;100468.34;5072924;28;20198;-74
2022/05/16 04:40:09;;;;;;;4.37;2.77;;;;;;;10.70;85.30;100470.47;5072569;28;20203;-73
2022/05/16 04:42:40;;;;;;;2.97;2.63;;;;;;;10.75;85.09;100465.97;5073269;28;20179;-73
2022/05/16 04:45:27;;;;;;;3.13;2.60;;;;;;;10.77;84.96;100470.00;5072872;28;20186;-73
2022/05/16 04:47:56;;;;;;;2.60;2.30;;;;;;;10.80;84.08;100466.66;5072182;28;20198;-73
2022/05/16 04:50:25;;;;;;;3.57;2.20;;;;;;;10.86;83.80;100470.06;5072976;28;20180;-73
2022/05/16 04:52:51;;;;;;;2.93;2.00;;;;;;;10.92;83.18;100479.75;5072710;28;20185;-74
2022/05/16 04:55:16;;;;;;;2.67;2.47;;;;;;;10.86;83.57;100470.06;5072672;28;20182;-73
2022/05/16 04:57:42;;;;;;;2.90;2.43;;;;;;;10.84;84.01;100475.03;5072375;28;20182;-72
2022/05/16 05:00:11;;;;;;;2.43;2.07;;;;;;;10.89;83.83;100470.25;5072500;28;20228;-72
2022/05/16 05:02:36;;;;;;;3.40;2.40;;;;;;;10.93;83.44;100471.22;5072568;28;20175;-73
2022/05/16 05:05:03;;;;;;;4.50;2.70;;;;;;;10.93;83.54;100475.88;5072494;28;20678;-72
2022/05/16 05:07:28;;;;;;;6.80;2.57;;;;;;;11.05;84.30;100478.84;5072222;28;20198;-72
2022/05/16 05:15:22;;;;;;;3.77;2.63;;;;;;;11.20;84.32;100472.19;5072311;28;20270;-73
2022/05/16 05:17:47;;;;;;;5.47;2.30;;;;;;;11.31;84.21;100462.59;5072043;28;20692;-73
2022/05/16 05:20:15;;;;;;;3.10;2.77;;;;;;;11.33;83.33;100466.59;5072152;28;20261;-73
2022/05/16 05:22:43;;;;;;;4.30;2.60;;;;;;;11.33;83.79;100472.09;5072117;28;20269;-73
2022/05/16 05:25:11;;;;;;;3.53;2.30;;;;;;;11.50;83.35;100470.53;5072255;28;20621;-72
2022/05/16 05:27:38;;;;;;;2.87;2.50;;;;;;;11.65;83.54;100485.72;5071889;28;20178;-73
2022/05/16 05:30:04;;;;;;;2.63;2.43;;;;;;;11.76;83.07;100485.09;5071907;28;20174;-71
2022/05/16 05:32:30;;;;;;;4.40;3.40;;;;;;;11.85;82.55;100476.91;5071924;28;20621;-71
2022/05/16 05:34:56;;;;;;;4.37;2.60;;;;;;;11.85;81.30;100479.66;5071495;28;20220;-73
2022/05/16 05:37:21;;;;;;;3.87;2.90;;;;;;;12.01;81.49;100472.63;5068179;28;20192;-71
2022/05/16 05:39:47;;;;;;;6.40;2.63;;;;;;;12.14;80.74;100482.59;5071726;28;20297;-71
2022/05/16 05:42:13;;;;;;;4.40;2.60;;;;;;;12.18;78.66;100477.31;5071356;28;20626;-72
2022/05/16 05:44:38;;;;;;;2.57;2.30;;;;;;;12.28;78.52;100484.38;5071482;28;20213;-71
2022/05/16 05:47:03;;;;;;;4.57;3.00;;;;;;;12.33;77.79;100474.09;5071525;28;20211;-71
2022/05/16 05:49:29;;;;;;;3.43;2.63;;;;;;;12.37;77.84;100480.53;5071844;28;20189;-71
2022/05/16 05:51:55;;;;;;;4.70;2.40;;;;;;;12.50;77.44;100476.81;5071609;28;20637;-71
2022/05/16 05:54:21;;;;;;;3.00;2.40;;;;;;;12.68;78.09;100482.28;5071562;28;20671;-72
2022/05/16 05:56:46;;;;;;;3.03;2.37;;;;;;;12.75;77.13;100482.63;5071506;28;20205;-71
2022/05/16 05:59:11;;;;;;;4.53;2.57;;;;;;;12.80;76.79;100479.69;5071435;28;20182;-72
2022/05/16 06:01:37;;;;;;;2.40;2.20;;;;;;;12.87;76.33;100482.72;5071792;28;20174;-74
2022/05/16 06:04:02;;;;;;;3.80;2.93;;;;;;;12.92;76.40;100482.56;5071461;28;20213;-71
2022/05/16 06:06:28;;;;;;;2.60;2.30;;;;;;;12.94;76.68;100485.00;5071551;28;20171;-71
2022/05/16 06:08:54;;;;;;;2.63;2.40;;;;;;;13.08;76.91;100480.91;5070980;28;20171;-71
2022/05/16 06:11:20;;;;;;;3.10;2.80;;;;;;;13.13;75.45;100485.41;5071582;28;20673;-72
2022/05/16 06:13:45;;;;;;;3.07;2.50;;;;;;;13.23;76.02;100489.78;5071257;28;20171;-70
2022/05/16 06:16:10;;;;;;;2.80;2.60;;;;;;;13.39;75.90;100485.34;5071810;28;20186;-71
2022/05/16 06:18:36;;;;;;;5.60;2.47;;;;;;;13.40;74.85;100489.72;5073948;28;20312;-71
2022/05/16 06:21:03;;;;;;;2.73;2.53;;;;;;;13.55;75.18;100493.84;5071888;28;20194;-71
2022/05/16 06:23:28;;;;;;;5.53;2.77;;;;;;;13.56;74.38;100492.72;5071187;28;20170;-71
2022/05/16 06:25:55;;;;;;;5.23;3.00;;;;;;;13.83;74.39;100492.25;5071360;28;20182;-71
2022/05/16 06:28:23;;;;;;;3.00;2.53;;;;;;;13.84;73.96;100485.63;5071152;28;20533;-72
2022/05/16 06:30:51;;;;;;;3.10;2.47;;;;;;;13.98;73.63;100486.19;5070960;28;20225;-71
2022/05/16 06:33:18;;;;;;;3.00;2.23;;;;;;;14.23;73.16;100498.13;5071064;28;20203;-71
2022/05/16 06:35:45;;;;;;;2.17;2.07;;;;;;;14.29;73.00;100493.22;5071137;28;20232;-71
2022/05/16 06:38:13;;;;;;;2.33;2.17;;;;;;;14.29;72.35;100494.03;5070873;28;20174;-72
2022/05/16 06:40:42;;;;;;;3.70;2.50;;;;;;;14.45;73.04;100502.50;5070476;28;20210;-73
2022/05/16 06:43:08;;;;;;;3.73;2.90;;;;;;;14.65;73.08;100494.59;5070528;28;20544;-72
2022/05/16 06:45:33;;;;;;;2.97;2.50;;;;;;;14.80;72.53;100493.97;5070874;28;20212;-76
2022/05/16 06:48:00;;;;;;;2.53;2.33;;;;;;;14.85;70.76;100493.75;5070281;28;20603;-71
2022/05/16 06:50:25;;;;;;;2.97;2.67;;;;;;;15.02;70.95;100492.75;5067379;28;20186;-71
2022/05/16 06:52:51;;;;;;;3.67;2.17;;;;;;;15.14;69.73;100495.56;5058875;28;20190;-71
2022/05/16 06:55:19;;;;;;;3.87;2.57;;;;;;;15.11;69.50;100490.75;5068891;28;20178;-71
2022/05/16 06:57:45;;;;;;;4.03;2.87;;;;;;;15.31;69.45;100478.84;5070256;28;20243;-72
2022/05/16 07:00:11;;;;;;;2.70;2.50;;;;;;;15.42;69.24;100477.25;5070244;28;20649;-72
2022/05/16 07:02:38;;;;;;;3.20;2.87;;;;;;;15.65;69.06;100476.84;5071001;28;20261;-71
2022/05/16 07:05:04;;;;;;;3.00;2.57;;;;;;;15.88;68.56;100483.47;5070429;28;20194;-70
2022/05/16 07:07:29;;;;;;;3.30;2.43;;;;;;;15.81;68.41;100482.44;5070073;28;20189;-71
2022/05/16 07:09:55;;;;;;;2.30;2.10;;;;;;;15.91;68.58;100480.03;5070766;28;20571;-71
2022/05/16 07:12:20;;;;;;;3.23;2.10;;;;;;;16.10;67.59;100475.88;5069286;28;20182;-71
2022/05/16 07:14:45;;;;;;;4.70;2.63;;;;;;;15.97;67.93;100469.56;5070583;28;20171;-71
2022/05/16 07:17:12;;;;;;;2.37;2.17;;;;;;;16.18;67.29;100470.22;5070416;28;20542;-71
2022/05/16 07:19:38;;;;;;;2.33;2.03;;;;;;;16.25;67.49;100466.88;5070224;28;20220;-71
2022/05/16 07:22:12;;;;;;;2.50;2.30;;;;;;;16.41;66.39;100464.97;5070486;28;20178;-71
2022/05/16 07:24:39;;;;;;;2.50;2.30;;;;;;;16.58;65.63;100458.38;5070783;28;20154;-72
2022/05/16 07:29:49;;;;;;;4.53;2.17;;;;;;;16.60;64.41;100456.06;5070426;28;20685;-71
2022/05/16 07:32:14;;;;;;;4.47;2.43;;;;;;;16.66;65.00;100454.66;5069040;28;20199;-71
2022/05/16 07:34:40;;;;;;;3.63;2.00;;;;;;;16.77;65.01;100443.94;5070457;28;20581;-71
2022/05/16 07:37:06;;;;;;;2.30;2.10;;;;;;;16.93;65.26;100448.34;5070520;28;20175;-71
2022/05/16 07:39:34;;;;;;;2.60;1.83;;;;;;;16.99;63.35;100450.84;5070172;28;20277;-71
2022/05/16 07:41:59;;;;;;;3.87;1.97;;;;;;;17.09;63.27;100459.41;5068732;28;20182;-71
2022/05/16 07:44:25;;;;;;;3.67;2.07;;;;;;;17.22;62.89;100441.59;5070274;28;20595;-71
2022/05/16 07:46:50;;;;;;;3.70;2.40;;;;;;;17.45;63.66;100452.00;5070234;28;20193;-72
2022/05/16 07:49:17;;;;;;;3.23;2.07;;;;;;;17.40;62.68;100441.22;5070101;28;20203;-71
2022/05/16 07:51:42;;;;;;;6.17;2.27;;;;;;;17.59;62.75;100446.81;5070215;28;20174;-71
2022/05/16 07:54:08;;;;;;;2.63;2.27;;;;;;;17.63;61.58;100444.94;5070160;28;20236;-71
2022/05/16 07:56:34;;;;;;;5.13;2.00;;;;;;;17.79;61.73;100445.75;5070092;28;20167;-71
2022/05/16 07:59:00;;;;;;;2.80;2.00;;;;;;;18.04;61.39;100445.50;5070703;28;20239;-72
2022/05/16 08:01:25;;;;;;;4.17;1.77;;;;;;;18.03;60.47;100432.84;5073647;28;20376;-70
2022/05/16 08:03:50;;;;;;;2.53;2.30;;;;;;;17.93;61.19;100433.41;5073744;28;20312;-71
2022/05/16 08:06:15;;;;;;;2.63;2.07;;;;;;;18.07;61.17;100433.72;5073539;28;20223;-71
2022/05/16 08:11:25;;;;;;;2.20;1.97;;;;;;;18.51;60.75;100428.69;5073670;28;20232;-71
2022/05/16 08:13:50;;;;;;;4.00;2.03;;;;;;;18.50;61.23;100438.16;5074043;28;20166;-71
2022/05/16 08:16:15;;;;;;;2.50;1.63;;;;;;;18.62;59.42;100428.91;5073570;28;20224;-72
2022/05/16 08:18:41;;;;;;;3.30;2.10;;;;;;;18.88;58.45;100434.59;5073160;28;20243;-71
2022/05/16 08:21:08;;;;;;;2.50;2.30;;;;;;;19.01;58.44;100433.25;5073267;28;20684;-71
2022/05/16 08:23:34;;;;;;;3.03;1.63;;;;;;;19.28;59.05;100436.88;5073631;28;20189;-70
2022/05/16 08:26:03;;;;;;;3.60;2.10;;;;;;;19.42;58.30;100425.22;5073325;28;20171;-71
2022/05/16 08:28:29;;;;;;;2.30;1.50;;;;;;;19.48;57.81;100429.28;5073001;28;20178;-71
2022/05/16 08:30:54;;;;;;;4.67;1.93;;;;;;;19.52;56.89;100432.88;5073252;28;20171;-70
2022/05/16 08:33:19;;;;;;;2.60;1.63;;;;;;;19.50;56.84;100434.44;5073124;28;20680;-71
2022/05/16 08:39:51;;;;;;;6.43;1.97;;;;;;;19.53;57.71;100430.94;5063821;28;20653;-71
2022/05/16 08:41:14;;;;;;;2.50;1.97;;;;;;;19.96;56.72;100437.91;5072628;28;20292;-71
2022/05/16 08:44:09;;;;;;;2.17;1.90;;;;;;;19.90;55.88;100425.56;5072539;28;20653;-71
2022/05/16 08:46:55;;;;;;;2.57;1.60;;;;;;;20.00;56.50;100424.13;5072946;28;20646;-70
2022/05/16 08:49:34;;;;;;;2.87;1.90;;;;;;;20.11;57.28;100428.66;5073380;28;20156;-71
2022/05/16 08:52:20;;;;;;;3.40;2.00;;;;;;;20.21;55.08;100418.84;5072815;28;20245;-71
2022/05/16 08:55:13;;;;;;;2.27;1.60;;;;;;;20.16;55.24;100421.97;5050772;28;20192;-71
2022/05/16 08:57:47;;;;;;;3.60;2.67;;;;;;;20.46;56.38;100427.50;5073142;28;20527;-71
2022/05/16 09:00:48;;;;;;;5.57;1.60;;;;;;;20.67;56.43;100422.19;5072463;28;20201;-71
2022/05/16 09:03:28;;;;;;;4.30;2.43;;;;;;;20.86;55.83;100428.75;5072627;28;20178;-71
2022/05/16 09:06:11;;;;;;;2.53;1.90;;;;;;;21.04;54.89;100424.16;5072472;28;20248;-71
2022/05/16 09:08:49;;;;;;;2.87;2.17;;;;;;;20.83;53.52;100424.75;5072148;28;20588;-71
2022/05/16 09:11:46;;;;;;;3.40;2.20;;;;;;;20.92;53.96;100416.91;5072135;28;20171;-71
2022/05/16 09:14:27;;;;;;;4.40;1.90;;;;;;;21.03;55.20;100408.66;5053945;28;20187;-72
2022/05/16 09:17:08;;;;;;;2.93;2.63;;;;;;;21.19;53.87;100400.06;5072071;28;20170;-71
2022/05/16 09:19:43;;;;;;;3.47;2.40;;;;;;;21.14;53.77;100400.44;5070563;28;20218;-72
2022/05/16 09:22:24;;;;;;;1.90;1.70;;;;;;;21.27;53.85;100408.13;5072164;28;20175;-71
2022/05/16 09:25:22;;;;;;;3.60;2.70;;;;;;;21.50;53.78;100416.22;5072177;28;20201;-73
2022/05/16 09:30:39;;;;;;;4.53;1.83;;;;;;;21.69;53.42;100417.94;5071950;28;20194;-71
2022/05/16 09:33:11;;;;;;;2.77;2.43;;;;;;;21.70;53.08;100411.22;5072013;28;20180;-72
2022/05/16 09:35:45;;;;;;;3.60;2.13;;;;;;;21.73;53.57;100413.22;5071904;28;20176;-71
2022/05/16 09:38:11;;;;;;;3.73;2.00;;;;;;;22.03;53.55;100414.97;5071540;28;20250;-71
2022/05/16 09:40:39;;;;;;;4.17;2.07;;;;;;;22.32;53.71;100407.56;5071465;28;20359;-71
2022/05/16 09:43:15;;;;;;;2.17;2.03;;;;;;;22.25;51.18;100397.19;5071440;28;20185;-71
2022/05/16 09:45:46;;;;;;;2.70;2.10;;;;;;;22.20;52.69;100411.50;5071646;28;20170;-71
2022/05/16 09:48:21;;;;;;;4.67;2.27;;;;;;;22.53;52.57;100402.84;5065155;28;20255;-72
2022/05/16 09:51:02;;;;;;;4.43;2.10;;;;;;;22.72;52.47;100398.16;5071187;28;20175;-72
2022/05/16 09:53:33;;;;;;;2.40;2.20;;;;;;;22.91;51.57;100403.38;5051098;28;20178;-71
2022/05/16 09:56:12;;;;;;;2.40;2.13;;;;;;;22.98;50.70;100413.72;5051183;28;20167;-71
2022/05/16 09:58:51;;;;;;;2.40;2.20;;;;;;;22.75;49.69;100397.34;5050826;28;20175;-71
2022/05/16 10:01:45;;;;;;;2.10;1.90;;;;;;;22.91;51.26;100402.59;5050997;28;20339;-71
2022/05/16 10:04:17;;;;;;;3.03;2.30;;;;;;;23.07;51.10;100409.38;5051064;28;20261;-71
2022/05/16 10:07:03;;;;;;;5.40;2.30;;;;;;;23.32;50.72;100401.00;5050798;28;20168;-73
2022/05/16 10:09:36;;;;;;;3.17;1.80;;;;;;;23.38;51.37;100406.97;5050893;28;20663;-71
2022/05/16 10:12:04;;;;;;;2.73;1.97;;;;;;;23.43;50.20;100398.19;5051293;28;20156;-71
2022/05/16 10:14:30;;;;;;;4.37;2.67;;;;;;;22.95;49.86;100395.81;5050945;28;20654;-72
2022/05/16 10:16:56;;;;;;;2.67;2.37;;;;;;;22.92;51.15;100396.59;5050978;28;20214;-71
2022/05/16 10:19:26;;;;;;;5.23;2.33;;;;;;;23.14;50.70;100391.84;5050876;28;20698;-71
2022/05/16 10:22:13;;;;;;;3.60;2.00;;;;;;;23.43;50.33;100389.81;5050545;28;20168;-71
2022/05/16 10:24:44;;;;;;;2.97;2.37;;;;;;;23.65;50.40;100377.47;5051138;28;20159;-72
2022/05/16 10:27:12;;;;;;;2.47;1.87;;;;;;;23.83;51.13;100385.00;5052519;28;20584;-71
2022/05/16 10:29:41;;;;;;;2.53;2.00;;;;;;;23.88;52.25;100379.81;5051584;28;20174;-72
2022/05/16 10:35:07;;;;;;;3.77;2.10;;;;;;;23.65;50.21;100371.91;5050984;28;20250;-71
2022/05/16 10:37:36;;;;;;;2.17;1.97;;;;;;;23.70;50.28;100376.25;5051267;28;20405;-71
2022/05/16 10:40:39;;;;;;;2.77;2.50;;;;;;;23.33;50.33;100373.94;5050212;28;20191;-71
2022/05/16 10:43:44;;;;;;;2.80;2.20;;;;;;;23.27;50.78;100372.72;5047597;28;20190;-71
2022/05/16 10:46:23;;;;;;;3.07;2.50;;;;;;;23.57;52.12;100361.94;5050816;28;20202;-71
2022/05/16 10:48:57;;;;;;;3.37;2.17;;;;;;;23.70;51.20;100362.31;5050648;28;20636;-71
2022/05/16 10:51:39;;;;;;;3.20;2.30;;;;;;;23.83;50.99;100362.69;5050808;28;20170;-71
2022/05/16 10:54:20;;;;;;;6.13;2.33;;;;;;;24.21;50.18;100358.94;5051098;28;20562;-71
2022/05/16 10:57:08;;;;;;;2.47;2.00;;;;;;;24.49;49.23;100357.22;5050231;28;20167;-71
2022/05/16 11:00:10;;;;;;;3.17;2.10;;;;;;;24.39;48.85;100366.47;5050459;28;20259;-71
2022/05/16 11:03:09;;;;;;;2.17;1.97;;;;;;;23.73;49.71;100361.53;5050008;28;20183;-71
2022/05/16 11:05:53;;;;;;;3.20;2.43;;;;;;;24.00;50.93;100365.41;5046356;28;20562;-71
2022/05/16 11:08:22;;;;;;;3.57;2.17;;;;;;;24.47;49.30;100368.03;5049831;28;20201;-71
2022/05/16 11:11:14;;;;;;;2.90;2.03;;;;;;;24.63;47.99;100359.94;5050128;28;20163;-71
2022/05/16 11:13:48;;;;;;;2.23;2.03;;;;;;;24.81;48.86;100366.19;5050327;28;20175;-71
2022/05/16 11:16:26;;;;;;;3.23;2.07;;;;;;;25.12;50.18;100369.97;5050219;28;20203;-71
2022/05/16 11:19:05;;;;;;;2.63;2.40;;;;;;;25.35;48.06;100369.38;5050059;28;20262;-71
2022/05/16 11:21:45;;;;;;;2.90;2.53;;;;;;;25.02;48.04;100372.84;5050445;28;20197;-72
2022/05/16 11:24:31;;;;;;;2.97;2.20;;;;;;;24.64;49.59;100364.31;5050529;28;20226;-72
2022/05/16 11:27:12;;;;;;;3.77;2.40;;;;;;;24.97;49.45;100367.69;5050018;28;20183;-71
2022/05/16 11:29:49;;;;;;;2.17;1.97;;;;;;;24.92;49.40;100363.31;5050809;28;20175;-71
2022/05/16 11:32:35;;;;;;;2.67;2.10;;;;;;;24.90;49.67;100358.16;5053675;28;20178;-72
2022/05/16 11:35:31;;;;;;;2.50;2.10;;;;;;;25.18;48.98;100361.94;5067026;28;20228;-72
2022/05/16 11:38:13;;;;;;;2.87;2.20;;;;;;;25.18;50.68;100362.75;5073879;28;20663;-72
2022/05/16 11:40:56;;;;;;;3.53;2.30;;;;;;;25.44;48.31;100361.28;5059160;28;20203;-71
2022/05/16 11:43:32;;;;;;;5.67;2.50;;;;;;;25.55;47.05;100357.59;5073927;28;20575;-72
2022/05/16 11:46:27;;;;;;;3.73;2.10;;;;;;;25.35;47.33;100355.41;5073883;28;20173;-72
2022/05/16 11:49:17;;;;;;;3.60;2.40;;;;;;;25.20;48.47;100362.34;5073862;28;20178;-72
2022/05/16 11:52:21;;;;;;;2.60;2.40;;;;;;;25.18;47.20;100359.16;5073906;28;20261;-71
2022/05/16 12:00:50;;;;;;;2.63;2.37;;;;;;;25.00;49.15;100352.88;5073568;28;20201;-71
2022/05/16 12:03:19;;;;;;;2.53;2.33;;;;;;;24.83;48.31;100355.41;5073753;28;20519;-71
2022/05/16 12:06:14;;;;;;;2.93;2.40;;;;;;;24.61;48.11;100353.97;5073669;28;20167;-72
2022/05/16 12:08:45;;;;;;;2.93;2.60;;;;;;;24.69;47.84;100344.31;5073594;28;20190;-72
2022/05/16 12:11:13;;;;;;;3.17;2.60;;;;;;;24.63;46.50;100346.75;5073505;28;20175;-72
2022/05/16 12:14:11;;;;;;;2.10;2.00;;;;;;;24.65;46.79;100354.72;5073690;28;20175;-71
2022/05/16 12:17:07;;;;;;;2.70;2.47;;;;;;;24.61;47.35;100349.19;5073446;28;20151;-71